Language: 

Nearby METAR Reports

METAR Reports

Hourly observations from airfields within 50 miles of this weather station

 

EGHH - Bournemouth Airp, United Kingdom
Distance from station: S 10mi, 17km
Updated: Thu, 19-Jul-2018 11:20pm BST
Clear
Clear
 Wind from NW
Wind: NW 5 mph , 7 km/h
Temperature: 18°C
Dew Point: 12°C
Humidity: 68%
Barometer: 1017 hPa
Summary: Clear
Visibility: greater than 7 miles , 10 km
2018/07/19 22:20 EGHH 192220Z 31004KT CAVOK 18/12 Q1017
EGDM - Boscombe Down, United Kingdom
Distance from station: N 16mi, 26km
Updated: Thu, 19-Jul-2018 11:50pm BST
Mostly Cloudy
Mostly Cloudy
 Wind from NW
Wind: NW 7 mph , 11 km/h
Temperature: 18°C
Dew Point: 12°C
Humidity: 68%
Barometer: 1017 hPa
Clouds: Mostly Cloudy
Visibility: 6 miles , 10 km
Cloud details: Mostly Cloudy 1829 m
2018/07/19 22:50 EGDM 192250Z AUTO 31006KT 9999 BKN060/// 18/12 Q1017
 
EGVP - Middle Wallop, United Kingdom
Distance from station: NE 17mi, 27km
Updated: Thu, 19-Jul-2018 11:50pm BST
Clear
Clear
 Wind from WNW
Wind: WNW 5 mph , 7 km/h
Temperature: 19°C
Dew Point: 12°C
Humidity: 64%
Barometer: 1017 hPa
Summary: Clear
Visibility: greater than 7 miles , 10 km
2018/07/19 22:50 EGVP 192250Z 30004KT CAVOK 19/12 Q1017 BLU NOSIG
EGHI - Southampton Wx C, United Kingdom
Distance from station: E 19mi, 31km
Updated: Thu, 19-Jul-2018 10:50pm BST
NOT Current
Clear
Clear
 Wind from calm
Wind: Calm
Temperature: 21°C
Dew Point: 11°C
Humidity: 53%
Barometer: 1016 hPa
Summary: Clear
Visibility: greater than 7 miles , 10 km
2018/07/19 21:50 EGHI 192150Z 00000KT CAVOK 21/11 Q1016
 
EGDY - Yeovilton (navy), United Kingdom
Distance from station: W 36mi, 58km
Updated: Thu, 19-Jul-2018 11:50pm BST
Clear
Clear
 Wind from WSW
Wind: WSW 2 mph , 4 km/h
Temperature: 16°C
Dew Point: 12°C
Humidity: 77%
Barometer: 1017 hPa
Summary: Clear
Visibility: greater than 7 miles , 10 km
2018/07/19 22:50 EGDY 192250Z 24002KT CAVOK 16/12 Q1017 BLU NOSIG
EGVO - Odiham Raf, United Kingdom
Distance from station: ENE 42mi, 68km
Updated: Thu, 19-Jul-2018 11:50pm BST
Clear
Clear
 Wind from S
Wind: S 6 mph , 9 km/h
Temperature: 21°C
Dew Point: 11°C
Humidity: 53%
Barometer: 1017 hPa
Summary: Clear
Visibility: greater than 7 miles , 10 km
2018/07/19 22:50 EGVO 192250Z 17005KT CAVOK 21/11 Q1017 BLU NOSIG

Metar display script from Saratoga-Weather.org

top of page button